sensor_id;sensor_type;location;lat;lon;timestamp;P1;durP1;ratioP1;P2;durP2;ratioP2
5077;SDS011;2557;51.390;7.494;2023-09-19T00:00:36;8.20;;;3.50;;
5077;SDS011;2557;51.390;7.494;2023-09-19T00:03:02;8.77;;;4.00;;
5077;SDS011;2557;51.390;7.494;2023-09-19T00:05:30;5.80;;;2.83;;
5077;SDS011;2557;51.390;7.494;2023-09-19T00:08:00;5.47;;;3.30;;
5077;SDS011;2557;51.390;7.494;2023-09-19T00:10:26;10.20;;;3.37;;
5077;SDS011;2557;51.390;7.494;2023-09-19T00:12:56;9.53;;;3.23;;
5077;SDS011;2557;51.390;7.494;2023-09-19T00:15:23;4.80;;;3.43;;
5077;SDS011;2557;51.390;7.494;2023-09-19T00:17:49;7.63;;;3.73;;
5077;SDS011;2557;51.390;7.494;2023-09-19T00:20:20;8.57;;;3.10;;
5077;SDS011;2557;51.390;7.494;2023-09-19T00:22:48;10.00;;;3.57;;
5077;SDS011;2557;51.390;7.494;2023-09-19T00:25:15;5.00;;;3.40;;
5077;SDS011;2557;51.390;7.494;2023-09-19T00:27:42;12.10;;;3.77;;
5077;SDS011;2557;51.390;7.494;2023-09-19T00:30:10;8.23;;;3.00;;
5077;SDS011;2557;51.390;7.494;2023-09-19T00:32:40;10.60;;;3.37;;
5077;SDS011;2557;51.390;7.494;2023-09-19T00:35:07;5.10;;;3.10;;
5077;SDS011;2557;51.390;7.494;2023-09-19T00:37:36;11.83;;;3.00;;
5077;SDS011;2557;51.390;7.494;2023-09-19T00:40:03;5.80;;;2.50;;
5077;SDS011;2557;51.390;7.494;2023-09-19T00:42:30;13.40;;;4.47;;
5077;SDS011;2557;51.390;7.494;2023-09-19T00:44:56;8.43;;;3.37;;
5077;SDS011;2557;51.390;7.494;2023-09-19T00:47:22;5.47;;;3.30;;
5077;SDS011;2557;51.390;7.494;2023-09-19T00:49:50;9.83;;;3.57;;
5077;SDS011;2557;51.390;7.494;2023-09-19T00:52:17;7.17;;;2.87;;
5077;SDS011;2557;51.390;7.494;2023-09-19T00:54:45;8.40;;;3.80;;
5077;SDS011;2557;51.390;7.494;2023-09-19T00:57:11;4.33;;;2.77;;
5077;SDS011;2557;51.390;7.494;2023-09-19T00:59:39;9.40;;;3.27;;
5077;SDS011;2557;51.390;7.494;2023-09-19T01:02:06;7.20;;;3.20;;
5077;SDS011;2557;51.390;7.494;2023-09-19T01:04:32;5.83;;;4.17;;
5077;SDS011;2557;51.390;7.494;2023-09-19T01:06:59;11.30;;;3.27;;
5077;SDS011;2557;51.390;7.494;2023-09-19T01:09:25;5.40;;;2.87;;
5077;SDS011;2557;51.390;7.494;2023-09-19T01:11:52;10.47;;;3.60;;
5077;SDS011;2557;51.390;7.494;2023-09-19T01:14:34;12.33;;;3.73;;
5077;SDS011;2557;51.390;7.494;2023-09-19T01:17:20;8.70;;;2.83;;
5077;SDS011;2557;51.390;7.494;2023-09-19T01:20:11;8.40;;;3.10;;
5077;SDS011;2557;51.390;7.494;2023-09-19T01:28:00;7.80;;;3.20;;
5077;SDS011;2557;51.390;7.494;2023-09-19T01:30:33;8.57;;;3.10;;
5077;SDS011;2557;51.390;7.494;2023-09-19T01:33:04;10.33;;;2.90;;
5077;SDS011;2557;51.390;7.494;2023-09-19T01:35:31;8.73;;;4.00;;
5077;SDS011;2557;51.390;7.494;2023-09-19T01:37:59;11.47;;;3.63;;
5077;SDS011;2557;51.390;7.494;2023-09-19T01:40:25;9.70;;;2.83;;
5077;SDS011;2557;51.390;7.494;2023-09-19T01:48:38;7.90;;;3.60;;
5077;SDS011;2557;51.390;7.494;2023-09-19T01:51:09;10.70;;;3.50;;
5077;SDS011;2557;51.390;7.494;2023-09-19T01:53:36;9.30;;;3.00;;
5077;SDS011;2557;51.390;7.494;2023-09-19T01:56:05;11.73;;;4.33;;
5077;SDS011;2557;51.390;7.494;2023-09-19T01:58:36;9.67;;;3.50;;
5077;SDS011;2557;51.390;7.494;2023-09-19T02:01:04;13.27;;;4.37;;
5077;SDS011;2557;51.390;7.494;2023-09-19T02:03:31;9.00;;;3.20;;
5077;SDS011;2557;51.390;7.494;2023-09-19T02:05:57;19.80;;;4.07;;
5077;SDS011;2557;51.390;7.494;2023-09-19T02:08:23;9.30;;;3.83;;
5077;SDS011;2557;51.390;7.494;2023-09-19T02:10:49;8.43;;;3.20;;
5077;SDS011;2557;51.390;7.494;2023-09-19T02:13:16;5.10;;;3.20;;
5077;SDS011;2557;51.390;7.494;2023-09-19T02:15:42;7.27;;;3.20;;
5077;SDS011;2557;51.390;7.494;2023-09-19T02:18:12;12.60;;;4.30;;
5077;SDS011;2557;51.390;7.494;2023-09-19T02:20:38;6.67;;;3.20;;
5077;SDS011;2557;51.390;7.494;2023-09-19T02:23:05;11.23;;;3.77;;
5077;SDS011;2557;51.390;7.494;2023-09-19T02:25:31;8.93;;;3.43;;
5077;SDS011;2557;51.390;7.494;2023-09-19T02:27:57;9.90;;;3.27;;
5077;SDS011;2557;51.390;7.494;2023-09-19T02:30:28;10.83;;;3.30;;
5077;SDS011;2557;51.390;7.494;2023-09-19T02:32:54;11.67;;;4.03;;
5077;SDS011;2557;51.390;7.494;2023-09-19T02:35:20;8.60;;;3.70;;
5077;SDS011;2557;51.390;7.494;2023-09-19T02:37:46;10.53;;;3.27;;
5077;SDS011;2557;51.390;7.494;2023-09-19T02:40:12;10.93;;;3.57;;
5077;SDS011;2557;51.390;7.494;2023-09-19T02:42:47;9.20;;;3.47;;
5077;SDS011;2557;51.390;7.494;2023-09-19T02:45:17;7.97;;;2.87;;
5077;SDS011;2557;51.390;7.494;2023-09-19T02:47:43;10.17;;;3.60;;
5077;SDS011;2557;51.390;7.494;2023-09-19T02:50:09;8.70;;;3.10;;
5077;SDS011;2557;51.390;7.494;2023-09-19T02:52:36;13.67;;;3.43;;
5077;SDS011;2557;51.390;7.494;2023-09-19T02:55:02;10.53;;;3.23;;
5077;SDS011;2557;51.390;7.494;2023-09-19T02:57:30;11.40;;;3.50;;
5077;SDS011;2557;51.390;7.494;2023-09-19T02:59:58;9.50;;;3.70;;
5077;SDS011;2557;51.390;7.494;2023-09-19T03:02:27;12.00;;;4.00;;
5077;SDS011;2557;51.390;7.494;2023-09-19T03:04:53;8.10;;;4.13;;
5077;SDS011;2557;51.390;7.494;2023-09-19T03:07:21;10.60;;;3.83;;
5077;SDS011;2557;51.390;7.494;2023-09-19T03:09:47;9.17;;;4.10;;
5077;SDS011;2557;51.390;7.494;2023-09-19T03:12:14;17.07;;;4.80;;
5077;SDS011;2557;51.390;7.494;2023-09-19T03:14:40;10.83;;;3.63;;
5077;SDS011;2557;51.390;7.494;2023-09-19T03:17:06;14.90;;;5.40;;
5077;SDS011;2557;51.390;7.494;2023-09-19T03:19:34;16.00;;;4.13;;
5077;SDS011;2557;51.390;7.494;2023-09-19T03:22:00;10.30;;;3.80;;
5077;SDS011;2557;51.390;7.494;2023-09-19T03:24:27;17.43;;;4.23;;
5077;SDS011;2557;51.390;7.494;2023-09-19T03:26:54;12.03;;;3.63;;
5077;SDS011;2557;51.390;7.494;2023-09-19T03:29:20;9.77;;;4.10;;
5077;SDS011;2557;51.390;7.494;2023-09-19T03:31:47;7.70;;;3.70;;
5077;SDS011;2557;51.390;7.494;2023-09-19T03:34:13;8.00;;;3.33;;
5077;SDS011;2557;51.390;7.494;2023-09-19T03:36:39;5.57;;;2.97;;
5077;SDS011;2557;51.390;7.494;2023-09-19T03:39:06;7.77;;;3.03;;
5077;SDS011;2557;51.390;7.494;2023-09-19T03:41:32;10.20;;;3.57;;
5077;SDS011;2557;51.390;7.494;2023-09-19T03:44:01;9.37;;;3.50;;
5077;SDS011;2557;51.390;7.494;2023-09-19T03:46:27;10.40;;;3.00;;
5077;SDS011;2557;51.390;7.494;2023-09-19T03:48:53;11.90;;;3.37;;
5077;SDS011;2557;51.390;7.494;2023-09-19T03:51:20;11.20;;;3.10;;
5077;SDS011;2557;51.390;7.494;2023-09-19T03:53:46;6.47;;;2.90;;
5077;SDS011;2557;51.390;7.494;2023-09-19T03:56:14;13.90;;;2.97;;
5077;SDS011;2557;51.390;7.494;2023-09-19T03:58:40;5.03;;;3.10;;
5077;SDS011;2557;51.390;7.494;2023-09-19T04:01:06;7.17;;;3.93;;
5077;SDS011;2557;51.390;7.494;2023-09-19T04:03:33;16.97;;;4.30;;
5077;SDS011;2557;51.390;7.494;2023-09-19T04:06:18;5.77;;;3.03;;
5077;SDS011;2557;51.390;7.494;2023-09-19T04:08:44;16.30;;;3.43;;
5077;SDS011;2557;51.390;7.494;2023-09-19T04:11:12;14.80;;;3.63;;
5077;SDS011;2557;51.390;7.494;2023-09-19T04:13:38;13.93;;;3.30;;
5077;SDS011;2557;51.390;7.494;2023-09-19T04:16:04;9.10;;;3.10;;
5077;SDS011;2557;51.390;7.494;2023-09-19T04:18:31;15.53;;;4.20;;
5077;SDS011;2557;51.390;7.494;2023-09-19T04:20:59;9.37;;;3.40;;
5077;SDS011;2557;51.390;7.494;2023-09-19T04:23:27;12.30;;;3.10;;
5077;SDS011;2557;51.390;7.494;2023-09-19T04:25:53;9.63;;;3.13;;
5077;SDS011;2557;51.390;7.494;2023-09-19T04:28:19;10.27;;;2.80;;
5077;SDS011;2557;51.390;7.494;2023-09-19T04:30:45;10.17;;;3.17;;
5077;SDS011;2557;51.390;7.494;2023-09-19T04:33:11;13.00;;;3.60;;
5077;SDS011;2557;51.390;7.494;2023-09-19T04:35:39;11.13;;;3.50;;
5077;SDS011;2557;51.390;7.494;2023-09-19T04:38:07;4.33;;;2.87;;
5077;SDS011;2557;51.390;7.494;2023-09-19T04:40:33;7.20;;;3.63;;
5077;SDS011;2557;51.390;7.494;2023-09-19T04:43:00;8.60;;;3.57;;
5077;SDS011;2557;51.390;7.494;2023-09-19T04:45:26;6.90;;;3.60;;
5077;SDS011;2557;51.390;7.494;2023-09-19T04:47:53;13.53;;;3.60;;
5077;SDS011;2557;51.390;7.494;2023-09-19T04:50:19;15.03;;;3.37;;
5077;SDS011;2557;51.390;7.494;2023-09-19T04:52:51;8.77;;;3.50;;
5077;SDS011;2557;51.390;7.494;2023-09-19T04:55:18;11.97;;;3.60;;
5077;SDS011;2557;51.390;7.494;2023-09-19T04:57:46;6.43;;;3.30;;
5077;SDS011;2557;51.390;7.494;2023-09-19T05:00:13;5.67;;;2.57;;
5077;SDS011;2557;51.390;7.494;2023-09-19T05:02:41;9.73;;;3.23;;
5077;SDS011;2557;51.390;7.494;2023-09-19T05:05:07;13.40;;;3.83;;
5077;SDS011;2557;51.390;7.494;2023-09-19T05:07:35;9.30;;;2.83;;
5077;SDS011;2557;51.390;7.494;2023-09-19T05:10:01;14.13;;;3.73;;
5077;SDS011;2557;51.390;7.494;2023-09-19T05:12:30;14.80;;;3.37;;
5077;SDS011;2557;51.390;7.494;2023-09-19T05:14:56;7.23;;;2.87;;
5077;SDS011;2557;51.390;7.494;2023-09-19T05:17:22;6.57;;;3.00;;
5077;SDS011;2557;51.390;7.494;2023-09-19T05:19:49;11.93;;;3.80;;
5077;SDS011;2557;51.390;7.494;2023-09-19T05:22:15;13.40;;;3.83;;
5077;SDS011;2557;51.390;7.494;2023-09-19T05:24:43;4.77;;;2.83;;
5077;SDS011;2557;51.390;7.494;2023-09-19T05:27:13;11.43;;;3.27;;
5077;SDS011;2557;51.390;7.494;2023-09-19T05:29:39;20.43;;;4.03;;
5077;SDS011;2557;51.390;7.494;2023-09-19T05:32:06;6.03;;;3.37;;
5077;SDS011;2557;51.390;7.494;2023-09-19T05:34:32;15.47;;;4.87;;
5077;SDS011;2557;51.390;7.494;2023-09-19T05:36:58;12.47;;;4.03;;
5077;SDS011;2557;51.390;7.494;2023-09-19T05:39:24;18.13;;;5.80;;
5077;SDS011;2557;51.390;7.494;2023-09-19T05:41:51;9.37;;;3.37;;
5077;SDS011;2557;51.390;7.494;2023-09-19T05:44:17;20.37;;;3.90;;
5077;SDS011;2557;51.390;7.494;2023-09-19T05:46:43;15.60;;;4.83;;
5077;SDS011;2557;51.390;7.494;2023-09-19T05:49:10;9.13;;;4.70;;
5077;SDS011;2557;51.390;7.494;2023-09-19T05:51:36;12.00;;;3.30;;
5077;SDS011;2557;51.390;7.494;2023-09-19T05:54:02;12.63;;;3.47;;
5077;SDS011;2557;51.390;7.494;2023-09-19T05:56:30;12.33;;;4.10;;
5077;SDS011;2557;51.390;7.494;2023-09-19T05:58:56;7.60;;;3.67;;
5077;SDS011;2557;51.390;7.494;2023-09-19T06:01:22;8.97;;;3.63;;
5077;SDS011;2557;51.390;7.494;2023-09-19T06:03:48;11.90;;;3.30;;
5077;SDS011;2557;51.390;7.494;2023-09-19T06:06:14;7.37;;;3.37;;
5077;SDS011;2557;51.390;7.494;2023-09-19T06:08:40;11.37;;;3.83;;
5077;SDS011;2557;51.390;7.494;2023-09-19T06:11:09;8.80;;;4.23;;
5077;SDS011;2557;51.390;7.494;2023-09-19T06:13:35;13.20;;;3.90;;
5077;SDS011;2557;51.390;7.494;2023-09-19T06:16:04;5.27;;;3.10;;
5077;SDS011;2557;51.390;7.494;2023-09-19T06:18:30;13.37;;;3.70;;
5077;SDS011;2557;51.390;7.494;2023-09-19T06:20:58;6.78;;;2.70;;
5077;SDS011;2557;51.390;7.494;2023-09-19T06:23:24;13.90;;;4.00;;
5077;SDS011;2557;51.390;7.494;2023-09-19T06:25:52;11.30;;;4.37;;
5077;SDS011;2557;51.390;7.494;2023-09-19T06:28:18;11.67;;;4.17;;
5077;SDS011;2557;51.390;7.494;2023-09-19T06:30:49;8.10;;;4.80;;
5077;SDS011;2557;51.390;7.494;2023-09-19T06:33:15;5.97;;;3.23;;
5077;SDS011;2557;51.390;7.494;2023-09-19T06:35:42;5.27;;;2.83;;
5077;SDS011;2557;51.390;7.494;2023-09-19T06:38:09;12.63;;;4.07;;
5077;SDS011;2557;51.390;7.494;2023-09-19T06:40:38;9.93;;;3.37;;
5077;SDS011;2557;51.390;7.494;2023-09-19T06:43:04;6.70;;;3.70;;
5077;SDS011;2557;51.390;7.494;2023-09-19T06:45:31;13.27;;;4.03;;
5077;SDS011;2557;51.390;7.494;2023-09-19T06:47:57;15.80;;;4.43;;
5077;SDS011;2557;51.390;7.494;2023-09-19T06:50:25;11.80;;;3.43;;
5077;SDS011;2557;51.390;7.494;2023-09-19T06:52:53;12.97;;;3.93;;
5077;SDS011;2557;51.390;7.494;2023-09-19T06:55:20;5.30;;;3.17;;
5077;SDS011;2557;51.390;7.494;2023-09-19T06:57:46;8.40;;;4.60;;
5077;SDS011;2557;51.390;7.494;2023-09-19T07:00:13;8.80;;;3.60;;
5077;SDS011;2557;51.390;7.494;2023-09-19T07:03:03;11.17;;;4.00;;
5077;SDS011;2557;51.390;7.494;2023-09-19T07:05:30;9.53;;;3.23;;
5077;SDS011;2557;51.390;7.494;2023-09-19T07:07:57;15.37;;;4.10;;
5077;SDS011;2557;51.390;7.494;2023-09-19T07:10:24;8.60;;;2.80;;
5077;SDS011;2557;51.390;7.494;2023-09-19T07:12:58;14.87;;;4.17;;
5077;SDS011;2557;51.390;7.494;2023-09-19T07:15:25;17.37;;;3.87;;
5077;SDS011;2557;51.390;7.494;2023-09-19T07:17:51;9.93;;;4.00;;
5077;SDS011;2557;51.390;7.494;2023-09-19T07:20:18;13.57;;;3.40;;
5077;SDS011;2557;51.390;7.494;2023-09-19T07:22:44;8.40;;;3.67;;
5077;SDS011;2557;51.390;7.494;2023-09-19T07:25:12;13.67;;;3.30;;
5077;SDS011;2557;51.390;7.494;2023-09-19T07:27:39;13.17;;;3.73;;
5077;SDS011;2557;51.390;7.494;2023-09-19T07:30:05;16.90;;;4.17;;
5077;SDS011;2557;51.390;7.494;2023-09-19T07:32:31;12.77;;;4.70;;
5077;SDS011;2557;51.390;7.494;2023-09-19T07:34:57;10.67;;;3.90;;
5077;SDS011;2557;51.390;7.494;2023-09-19T07:37:23;8.10;;;4.03;;
5077;SDS011;2557;51.390;7.494;2023-09-19T07:39:50;8.73;;;4.00;;
5077;SDS011;2557;51.390;7.494;2023-09-19T07:42:16;13.87;;;3.20;;
5077;SDS011;2557;51.390;7.494;2023-09-19T07:44:43;17.13;;;3.97;;
5077;SDS011;2557;51.390;7.494;2023-09-19T07:47:13;13.23;;;3.83;;
5077;SDS011;2557;51.390;7.494;2023-09-19T07:49:39;6.57;;;3.50;;
5077;SDS011;2557;51.390;7.494;2023-09-19T07:52:05;7.30;;;3.73;;
5077;SDS011;2557;51.390;7.494;2023-09-19T07:54:32;16.20;;;4.30;;
5077;SDS011;2557;51.390;7.494;2023-09-19T07:57:00;10.80;;;3.73;;
5077;SDS011;2557;51.390;7.494;2023-09-19T07:59:26;10.50;;;3.97;;
5077;SDS011;2557;51.390;7.494;2023-09-19T08:01:52;8.47;;;4.57;;
5077;SDS011;2557;51.390;7.494;2023-09-19T08:04:19;10.67;;;3.90;;
5077;SDS011;2557;51.390;7.494;2023-09-19T08:06:45;9.73;;;4.60;;
5077;SDS011;2557;51.390;7.494;2023-09-19T08:09:11;18.90;;;4.10;;
5077;SDS011;2557;51.390;7.494;2023-09-19T08:11:39;10.90;;;4.40;;
5077;SDS011;2557;51.390;7.494;2023-09-19T08:14:05;14.30;;;3.47;;
5077;SDS011;2557;51.390;7.494;2023-09-19T08:16:32;11.00;;;3.70;;
5077;SDS011;2557;51.390;7.494;2023-09-19T08:18:58;10.00;;;3.60;;
5077;SDS011;2557;51.390;7.494;2023-09-19T08:21:24;15.70;;;4.17;;
5077;SDS011;2557;51.390;7.494;2023-09-19T08:23:53;8.43;;;3.40;;
5077;SDS011;2557;51.390;7.494;2023-09-19T08:26:19;10.33;;;3.87;;
5077;SDS011;2557;51.390;7.494;2023-09-19T08:28:46;19.40;;;3.90;;
5077;SDS011;2557;51.390;7.494;2023-09-19T08:31:13;8.80;;;3.43;;
5077;SDS011;2557;51.390;7.494;2023-09-19T08:33:39;10.03;;;3.53;;
5077;SDS011;2557;51.390;7.494;2023-09-19T08:36:06;12.80;;;4.30;;
5077;SDS011;2557;51.390;7.494;2023-09-19T08:38:34;10.13;;;3.50;;
5077;SDS011;2557;51.390;7.494;2023-09-19T08:41:00;8.67;;;3.87;;
5077;SDS011;2557;51.390;7.494;2023-09-19T08:43:27;6.83;;;3.40;;
5077;SDS011;2557;51.390;7.494;2023-09-19T08:45:56;9.70;;;3.80;;
5077;SDS011;2557;51.390;7.494;2023-09-19T08:48:25;10.47;;;4.17;;
5077;SDS011;2557;51.390;7.494;2023-09-19T08:50:56;16.00;;;5.20;;
5077;SDS011;2557;51.390;7.494;2023-09-19T08:53:26;13.90;;;4.33;;
5077;SDS011;2557;51.390;7.494;2023-09-19T08:55:53;5.90;;;3.90;;
5077;SDS011;2557;51.390;7.494;2023-09-19T08:58:21;13.20;;;5.20;;
5077;SDS011;2557;51.390;7.494;2023-09-19T09:00:49;13.23;;;4.17;;
5077;SDS011;2557;51.390;7.494;2023-09-19T09:03:16;18.67;;;5.40;;
5077;SDS011;2557;51.390;7.494;2023-09-19T09:05:46;9.33;;;5.40;;
5077;SDS011;2557;51.390;7.494;2023-09-19T09:08:12;21.77;;;4.50;;
5077;SDS011;2557;51.390;7.494;2023-09-19T09:10:39;13.87;;;4.40;;
5077;SDS011;2557;51.390;7.494;2023-09-19T09:13:08;17.03;;;4.43;;
5077;SDS011;2557;51.390;7.494;2023-09-19T09:15:35;12.63;;;4.63;;
5077;SDS011;2557;51.390;7.494;2023-09-19T09:18:02;13.93;;;4.10;;
5077;SDS011;2557;51.390;7.494;2023-09-19T09:20:29;5.10;;;4.17;;
5077;SDS011;2557;51.390;7.494;2023-09-19T09:22:56;8.47;;;3.60;;
5077;SDS011;2557;51.390;7.494;2023-09-19T09:25:46;7.90;;;3.37;;
5077;SDS011;2557;51.390;7.494;2023-09-19T09:28:11;14.83;;;4.10;;
5077;SDS011;2557;51.390;7.494;2023-09-19T09:30:37;6.50;;;3.40;;
5077;SDS011;2557;51.390;7.494;2023-09-19T09:33:13;15.67;;;5.53;;
5077;SDS011;2557;51.390;7.494;2023-09-19T09:38:21;11.73;;;3.80;;
5077;SDS011;2557;51.390;7.494;2023-09-19T09:40:53;9.37;;;3.73;;
5077;SDS011;2557;51.390;7.494;2023-09-19T09:43:29;8.53;;;4.50;;
5077;SDS011;2557;51.390;7.494;2023-09-19T09:46:09;7.90;;;4.00;;
5077;SDS011;2557;51.390;7.494;2023-09-19T09:51:34;10.57;;;3.33;;
5077;SDS011;2557;51.390;7.494;2023-09-19T09:54:10;12.50;;;3.70;;
5077;SDS011;2557;51.390;7.494;2023-09-19T09:56:51;10.33;;;3.60;;
5077;SDS011;2557;51.390;7.494;2023-09-19T09:59:18;7.83;;;3.10;;
5077;SDS011;2557;51.390;7.494;2023-09-19T10:01:48;10.07;;;3.67;;
5077;SDS011;2557;51.390;7.494;2023-09-19T10:04:36;7.90;;;3.17;;
5077;SDS011;2557;51.390;7.494;2023-09-19T10:07:09;7.63;;;3.60;;
5077;SDS011;2557;51.390;7.494;2023-09-19T10:09:46;8.87;;;3.33;;
5077;SDS011;2557;51.390;7.494;2023-09-19T10:12:16;9.60;;;3.50;;
5077;SDS011;2557;51.390;7.494;2023-09-19T10:14:42;11.87;;;3.37;;
5077;SDS011;2557;51.390;7.494;2023-09-19T10:17:12;11.43;;;3.80;;
5077;SDS011;2557;51.390;7.494;2023-09-19T10:19:52;12.43;;;5.37;;
5077;SDS011;2557;51.390;7.494;2023-09-19T10:22:22;7.30;;;3.47;;
5077;SDS011;2557;51.390;7.494;2023-09-19T10:24:49;11.23;;;4.80;;
5077;SDS011;2557;51.390;7.494;2023-09-19T10:27:19;7.93;;;3.73;;
5077;SDS011;2557;51.390;7.494;2023-09-19T10:29:45;12.03;;;3.67;;
5077;SDS011;2557;51.390;7.494;2023-09-19T10:32:15;12.90;;;3.33;;
5077;SDS011;2557;51.390;7.494;2023-09-19T10:34:44;11.70;;;3.40;;
5077;SDS011;2557;51.390;7.494;2023-09-19T10:37:11;6.50;;;3.27;;
5077;SDS011;2557;51.390;7.494;2023-09-19T10:39:39;13.03;;;3.50;;
5077;SDS011;2557;51.390;7.494;2023-09-19T10:42:06;5.03;;;2.47;;
5077;SDS011;2557;51.390;7.494;2023-09-19T10:44:33;7.13;;;3.33;;
5077;SDS011;2557;51.390;7.494;2023-09-19T10:47:08;7.37;;;3.40;;
5077;SDS011;2557;51.390;7.494;2023-09-19T10:49:34;6.87;;;3.83;;
5077;SDS011;2557;51.390;7.494;2023-09-19T10:52:01;8.90;;;3.93;;
5077;SDS011;2557;51.390;7.494;2023-09-19T10:54:31;11.13;;;3.37;;
5077;SDS011;2557;51.390;7.494;2023-09-19T10:57:01;9.90;;;3.63;;
5077;SDS011;2557;51.390;7.494;2023-09-19T10:59:30;5.03;;;2.60;;
5077;SDS011;2557;51.390;7.494;2023-09-19T11:01:59;10.37;;;3.33;;
5077;SDS011;2557;51.390;7.494;2023-09-19T11:04:32;7.33;;;3.13;;
5077;SDS011;2557;51.390;7.494;2023-09-19T11:09:45;14.70;;;4.47;;
5077;SDS011;2557;51.390;7.494;2023-09-19T11:12:12;5.60;;;2.53;;
5077;SDS011;2557;51.390;7.494;2023-09-19T11:14:39;9.63;;;3.50;;
5077;SDS011;2557;51.390;7.494;2023-09-19T11:22:21;7.33;;;2.90;;
5077;SDS011;2557;51.390;7.494;2023-09-19T11:24:47;10.17;;;3.30;;
5077;SDS011;2557;51.390;7.494;2023-09-19T11:27:16;10.40;;;3.33;;
5077;SDS011;2557;51.390;7.494;2023-09-19T11:29:43;8.60;;;3.27;;
5077;SDS011;2557;51.390;7.494;2023-09-19T11:32:10;5.20;;;2.70;;
5077;SDS011;2557;51.390;7.494;2023-09-19T11:37:02;6.03;;;2.40;;
5077;SDS011;2557;51.390;7.494;2023-09-19T11:39:29;8.40;;;2.80;;
5077;SDS011;2557;51.390;7.494;2023-09-19T11:41:55;12.87;;;4.10;;
5077;SDS011;2557;51.390;7.494;2023-09-19T11:44:32;11.70;;;4.07;;
5077;SDS011;2557;51.390;7.494;2023-09-19T11:46:59;10.43;;;2.80;;
5077;SDS011;2557;51.390;7.494;2023-09-19T11:49:28;5.37;;;2.90;;
5077;SDS011;2557;51.390;7.494;2023-09-19T11:51:55;10.17;;;2.90;;
5077;SDS011;2557;51.390;7.494;2023-09-19T11:54:21;10.13;;;2.83;;
5077;SDS011;2557;51.390;7.494;2023-09-19T11:56:50;6.97;;;3.10;;
5077;SDS011;2557;51.390;7.494;2023-09-19T11:59:22;4.83;;;3.17;;
5077;SDS011;2557;51.390;7.494;2023-09-19T12:01:53;4.47;;;2.17;;
5077;SDS011;2557;51.390;7.494;2023-09-19T12:04:34;6.00;;;2.33;;
5077;SDS011;2557;51.390;7.494;2023-09-19T12:07:05;3.13;;;2.03;;
5077;SDS011;2557;51.390;7.494;2023-09-19T12:09:38;3.03;;;2.27;;
5077;SDS011;2557;51.390;7.494;2023-09-19T12:12:05;5.53;;;2.50;;
5077;SDS011;2557;51.390;7.494;2023-09-19T12:14:31;3.87;;;2.50;;
5077;SDS011;2557;51.390;7.494;2023-09-19T12:16:58;7.07;;;3.23;;
5077;SDS011;2557;51.390;7.494;2023-09-19T12:19:26;4.30;;;2.17;;
5077;SDS011;2557;51.390;7.494;2023-09-19T12:24:23;5.77;;;2.50;;
5077;SDS011;2557;51.390;7.494;2023-09-19T12:26:51;6.70;;;2.97;;
5077;SDS011;2557;51.390;7.494;2023-09-19T12:29:19;4.60;;;2.87;;
5077;SDS011;2557;51.390;7.494;2023-09-19T12:31:48;10.40;;;3.43;;
5077;SDS011;2557;51.390;7.494;2023-09-19T12:34:19;5.80;;;2.90;;
5077;SDS011;2557;51.390;7.494;2023-09-19T12:36:46;4.70;;;2.90;;
5077;SDS011;2557;51.390;7.494;2023-09-19T12:39:22;8.30;;;3.00;;
5077;SDS011;2557;51.390;7.494;2023-09-19T12:41:49;10.93;;;3.70;;
5077;SDS011;2557;51.390;7.494;2023-09-19T12:44:15;10.23;;;2.77;;
5077;SDS011;2557;51.390;7.494;2023-09-19T12:46:43;5.30;;;2.87;;
5077;SDS011;2557;51.390;7.494;2023-09-19T12:49:19;6.10;;;2.83;;
5077;SDS011;2557;51.390;7.494;2023-09-19T12:51:46;7.37;;;2.77;;
5077;SDS011;2557;51.390;7.494;2023-09-19T12:54:13;8.53;;;3.10;;
5077;SDS011;2557;51.390;7.494;2023-09-19T12:56:44;5.87;;;2.77;;
5077;SDS011;2557;51.390;7.494;2023-09-19T12:59:14;5.27;;;2.63;;
5077;SDS011;2557;51.390;7.494;2023-09-19T13:01:40;3.73;;;2.40;;
5077;SDS011;2557;51.390;7.494;2023-09-19T13:04:13;8.20;;;3.20;;
5077;SDS011;2557;51.390;7.494;2023-09-19T13:06:43;8.43;;;3.00;;
5077;SDS011;2557;51.390;7.494;2023-09-19T13:09:10;7.80;;;2.73;;
5077;SDS011;2557;51.390;7.494;2023-09-19T13:11:36;7.47;;;3.23;;
5077;SDS011;2557;51.390;7.494;2023-09-19T13:16:55;3.83;;;3.00;;
5077;SDS011;2557;51.390;7.494;2023-09-19T13:19:40;4.73;;;2.30;;
5077;SDS011;2557;51.390;7.494;2023-09-19T13:24:56;10.90;;;2.80;;
5077;SDS011;2557;51.390;7.494;2023-09-19T13:27:23;6.43;;;2.30;;
5077;SDS011;2557;51.390;7.494;2023-09-19T13:29:49;3.63;;;2.53;;
5077;SDS011;2557;51.390;7.494;2023-09-19T13:32:15;4.63;;;2.60;;
5077;SDS011;2557;51.390;7.494;2023-09-19T13:34:41;6.23;;;2.57;;
5077;SDS011;2557;51.390;7.494;2023-09-19T13:37:07;11.67;;;3.20;;
5077;SDS011;2557;51.390;7.494;2023-09-19T13:39:34;9.30;;;2.80;;
5077;SDS011;2557;51.390;7.494;2023-09-19T13:42:01;3.80;;;2.73;;
5077;SDS011;2557;51.390;7.494;2023-09-19T13:44:28;6.80;;;2.73;;
5077;SDS011;2557;51.390;7.494;2023-09-19T13:46:55;6.93;;;2.90;;
5077;SDS011;2557;51.390;7.494;2023-09-19T13:49:21;6.63;;;2.60;;
5077;SDS011;2557;51.390;7.494;2023-09-19T13:51:48;8.83;;;2.90;;
5077;SDS011;2557;51.390;7.494;2023-09-19T13:54:14;2.50;;;2.13;;
5077;SDS011;2557;51.390;7.494;2023-09-19T13:56:40;6.13;;;2.77;;
5077;SDS011;2557;51.390;7.494;2023-09-19T13:59:06;4.50;;;2.57;;
5077;SDS011;2557;51.390;7.494;2023-09-19T14:01:32;5.27;;;2.67;;
5077;SDS011;2557;51.390;7.494;2023-09-19T14:03:58;2.73;;;2.07;;
5077;SDS011;2557;51.390;7.494;2023-09-19T14:06:24;4.73;;;2.40;;
5077;SDS011;2557;51.390;7.494;2023-09-19T14:08:51;6.60;;;2.53;;
5077;SDS011;2557;51.390;7.494;2023-09-19T14:11:17;5.83;;;3.17;;
5077;SDS011;2557;51.390;7.494;2023-09-19T14:13:43;5.87;;;3.17;;
5077;SDS011;2557;51.390;7.494;2023-09-19T14:16:13;6.50;;;2.40;;
5077;SDS011;2557;51.390;7.494;2023-09-19T14:18:39;11.33;;;2.73;;
5077;SDS011;2557;51.390;7.494;2023-09-19T14:21:06;5.00;;;2.17;;
5077;SDS011;2557;51.390;7.494;2023-09-19T14:23:36;5.83;;;2.40;;
5077;SDS011;2557;51.390;7.494;2023-09-19T14:26:02;4.50;;;2.70;;
5077;SDS011;2557;51.390;7.494;2023-09-19T14:28:30;2.40;;;1.97;;
5077;SDS011;2557;51.390;7.494;2023-09-19T14:30:56;4.67;;;1.90;;
5077;SDS011;2557;51.390;7.494;2023-09-19T14:33:22;6.20;;;2.73;;
5077;SDS011;2557;51.390;7.494;2023-09-19T14:35:48;6.93;;;2.03;;
5077;SDS011;2557;51.390;7.494;2023-09-19T14:38:14;3.20;;;2.13;;
5077;SDS011;2557;51.390;7.494;2023-09-19T14:40:40;5.13;;;2.37;;
5077;SDS011;2557;51.390;7.494;2023-09-19T14:43:07;3.63;;;2.07;;
5077;SDS011;2557;51.390;7.494;2023-09-19T14:45:35;3.20;;;1.87;;
5077;SDS011;2557;51.390;7.494;2023-09-19T14:48:01;7.57;;;1.90;;
5077;SDS011;2557;51.390;7.494;2023-09-19T14:50:30;3.90;;;1.90;;
5077;SDS011;2557;51.390;7.494;2023-09-19T14:52:56;3.30;;;1.80;;
5077;SDS011;2557;51.390;7.494;2023-09-19T14:55:23;5.73;;;2.00;;
5077;SDS011;2557;51.390;7.494;2023-09-19T14:57:49;3.20;;;2.10;;
5077;SDS011;2557;51.390;7.494;2023-09-19T15:00:20;3.20;;;1.83;;
5077;SDS011;2557;51.390;7.494;2023-09-19T15:02:48;7.47;;;1.87;;
5077;SDS011;2557;51.390;7.494;2023-09-19T15:05:15;2.93;;;1.47;;
5077;SDS011;2557;51.390;7.494;2023-09-19T15:07:41;2.83;;;1.83;;
5077;SDS011;2557;51.390;7.494;2023-09-19T15:10:07;4.03;;;2.43;;
5077;SDS011;2557;51.390;7.494;2023-09-19T15:12:35;4.83;;;1.83;;
5077;SDS011;2557;51.390;7.494;2023-09-19T15:15:03;3.50;;;1.90;;
5077;SDS011;2557;51.390;7.494;2023-09-19T15:17:31;5.23;;;2.10;;
5077;SDS011;2557;51.390;7.494;2023-09-19T15:19:57;1.47;;;1.37;;
5077;SDS011;2557;51.390;7.494;2023-09-19T15:22:23;3.07;;;1.47;;
5077;SDS011;2557;51.390;7.494;2023-09-19T15:24:50;3.37;;;2.10;;
5077;SDS011;2557;51.390;7.494;2023-09-19T15:27:16;2.47;;;1.60;;
5077;SDS011;2557;51.390;7.494;2023-09-19T15:29:45;10.47;;;1.77;;
5077;SDS011;2557;51.390;7.494;2023-09-19T15:32:11;4.90;;;1.70;;
5077;SDS011;2557;51.390;7.494;2023-09-19T15:34:37;4.20;;;2.10;;
5077;SDS011;2557;51.390;7.494;2023-09-19T15:37:03;3.80;;;1.80;;
5077;SDS011;2557;51.390;7.494;2023-09-19T15:39:32;2.33;;;1.67;;
5077;SDS011;2557;51.390;7.494;2023-09-19T15:41:58;3.03;;;1.77;;
5077;SDS011;2557;51.390;7.494;2023-09-19T15:44:24;2.13;;;1.40;;
5077;SDS011;2557;51.390;7.494;2023-09-19T15:46:51;1.97;;;1.50;;
5077;SDS011;2557;51.390;7.494;2023-09-19T15:49:17;2.90;;;1.73;;